MAC115B LEBL-GMTT
Flight info
| Callsign | MAC115B |
|---|---|
| Flight time | 1h 35m |
| Altitude | 37000 |
| Route | LOTOS DCT TORDU DCT DIKUT DCT SOPET DCT VLC DCT SERRA DCT ASTRO DCT POBOS DCT XEBAR DCT YES DCT MAMIS DCT BAZAS DCT VIBAS DCT MGA DCT PIMOS N869 GALTO M143 LAMAD |
| Aircraft | A320/M-SDE3FGHIRWY/LB1 |
Departure
| Time | 2026-04-29 12:50 |
|---|---|
| Airport | Josep Tarradellas Barcelona-El Prat Airport (LEBL) |
Arrival
| Time | 2026-04-29 14:26 |
|---|---|
| Airport | Tangier Ibn Battuta Airport (GMTT) |
| Time | Latitude | Longitude | Altitude | Speed | Heading |
|---|---|---|---|---|---|
| 2026-04-29 12:33 | 41.29016 | 2.08002 | 23 ft | 0 kts | 335° |
| 2026-04-29 12:42 | 41.29015 | 2.08003 | 23 ft | 1 kts | 336° |
| 2026-04-29 12:42 | 41.29002 | 2.08011 | 23 ft | 2 kts | 335° |
| 2026-04-29 12:42 | 41.28989 | 2.08019 | 23 ft | 2 kts | 336° |
| 2026-04-29 12:42 | 41.28975 | 2.08027 | 23 ft | 2 kts | 335° |
| 2026-04-29 12:43 | 41.28962 | 2.08035 | 23 ft | 0 kts | 336° |
| 2026-04-29 12:43 | 41.28952 | 2.08041 | 23 ft | 2 kts | 310° |
| 2026-04-29 12:43 | 41.28946 | 2.08060 | 23 ft | 2 kts | 272° |
| 2026-04-29 12:43 | 41.28947 | 2.08072 | 23 ft | 0 kts | 248° |
| 2026-04-29 12:44 | 41.28950 | 2.08081 | 23 ft | 0 kts | 245° |
| 2026-04-29 12:45 | 41.28947 | 2.08072 | 23 ft | 3 kts | 246° |
| 2026-04-29 12:46 | 41.28927 | 2.08010 | 23 ft | 8 kts | 235° |
| 2026-04-29 12:46 | 41.28867 | 2.08015 | 23 ft | 11 kts | 154° |
| 2026-04-29 12:46 | 41.28779 | 2.08070 | 23 ft | 14 kts | 155° |
| 2026-04-29 12:46 | 41.28704 | 2.08032 | 23 ft | 14 kts | 245° |
| 2026-04-29 12:47 | 41.28634 | 2.07980 | 23 ft | 13 kts | 165° |
| 2026-04-29 12:47 | 41.28573 | 2.07889 | 23 ft | 16 kts | 246° |
| 2026-04-29 12:47 | 41.28518 | 2.07729 | 23 ft | 21 kts | 245° |
| 2026-04-29 12:47 | 41.28457 | 2.07548 | 23 ft | 21 kts | 245° |
| 2026-04-29 12:48 | 41.28389 | 2.07455 | 23 ft | 13 kts | 199° |
| 2026-04-29 12:48 | 41.28299 | 2.07408 | 23 ft | 14 kts | 201° |
| 2026-04-29 12:48 | 41.28242 | 2.07467 | 23 ft | 10 kts | 69° |
| 2026-04-29 12:48 | 41.28248 | 2.07485 | 23 ft | 0 kts | 65° |
| 2026-04-29 12:49 | 41.28260 | 2.07521 | 23 ft | 23 kts | 66° |
| 2026-04-29 12:50 | 41.28438 | 2.08040 | 23 ft | 97 kts | 65° |
| 2026-04-29 12:50 | 41.28804 | 2.09109 | 29 ft | 155 kts | 66° |
| 2026-04-29 12:50 | 41.29254 | 2.10455 | 608 ft | 160 kts | 70° |
| 2026-04-29 12:50 | 41.29295 | 2.11912 | 1285 ft | 167 kts | 97° |
| 2026-04-29 12:51 | 41.29054 | 2.13401 | 1977 ft | 171 kts | 95° |
| 2026-04-29 12:51 | 41.29040 | 2.15022 | 2498 ft | 185 kts | 89° |
| 2026-04-29 12:51 | 41.28862 | 2.16796 | 3055 ft | 201 kts | 94° |
| 2026-04-29 12:51 | 41.28698 | 2.18696 | 3659 ft | 213 kts | 92° |
| 2026-04-29 12:52 | 41.28534 | 2.20673 | 4406 ft | 219 kts | 93° |
| 2026-04-29 12:52 | 41.28329 | 2.22678 | 5121 ft | 227 kts | 101° |
| 2026-04-29 12:52 | 41.27503 | 2.24591 | 5517 ft | 257 kts | 139° |
| 2026-04-29 12:52 | 41.25828 | 2.25595 | 6035 ft | 278 kts | 175° |
| 2026-04-29 12:53 | 41.23917 | 2.25173 | 6680 ft | 287 kts | 210° |
| 2026-04-29 12:53 | 41.22480 | 2.23422 | 7589 ft | 283 kts | 241° |
| 2026-04-29 12:53 | 41.21592 | 2.21168 | 8572 ft | 281 kts | 246° |
| 2026-04-29 12:53 | 41.20715 | 2.18838 | 9468 ft | 284 kts | 244° |
| 2026-04-29 12:54 | 41.19750 | 2.16555 | 10344 ft | 287 kts | 241° |
| 2026-04-29 12:54 | 41.18679 | 2.14261 | 10931 ft | 301 kts | 238° |
| 2026-04-29 12:54 | 41.17484 | 2.11873 | 11341 ft | 320 kts | 237° |
| 2026-04-29 12:54 | 41.16185 | 2.09385 | 11729 ft | 337 kts | 236° |
| 2026-04-29 12:55 | 41.14808 | 2.06818 | 12322 ft | 347 kts | 235° |
| 2026-04-29 12:55 | 41.13392 | 2.04214 | 13129 ft | 350 kts | 235° |
| 2026-04-29 12:55 | 41.11954 | 2.01594 | 13922 ft | 353 kts | 235° |
| 2026-04-29 12:55 | 41.10508 | 1.98968 | 14670 ft | 356 kts | 235° |
| 2026-04-29 12:56 | 41.09061 | 1.96348 | 15382 ft | 359 kts | 235° |
| 2026-04-29 12:56 | 41.07579 | 1.93670 | 16081 ft | 363 kts | 235° |
| 2026-04-29 12:56 | 41.06081 | 1.90968 | 16760 ft | 367 kts | 236° |
| 2026-04-29 12:56 | 41.04554 | 1.88214 | 17423 ft | 371 kts | 236° |
| 2026-04-29 12:57 | 41.03030 | 1.85471 | 18056 ft | 375 kts | 236° |
| 2026-04-29 12:57 | 41.01495 | 1.82708 | 18671 ft | 379 kts | 236° |
| 2026-04-29 12:57 | 40.99923 | 1.79884 | 19273 ft | 383 kts | 236° |
| 2026-04-29 12:57 | 40.98347 | 1.77054 | 19855 ft | 387 kts | 236° |
| 2026-04-29 12:58 | 40.96744 | 1.74179 | 20427 ft | 391 kts | 235° |
| 2026-04-29 12:58 | 40.95126 | 1.71280 | 20982 ft | 395 kts | 235° |
| 2026-04-29 12:58 | 40.93486 | 1.68346 | 21539 ft | 398 kts | 235° |
| 2026-04-29 12:58 | 40.91850 | 1.65420 | 22087 ft | 401 kts | 235° |
| 2026-04-29 12:59 | 40.90185 | 1.62448 | 22630 ft | 404 kts | 235° |
| 2026-04-29 12:59 | 40.88496 | 1.59434 | 23161 ft | 407 kts | 235° |
| 2026-04-29 12:59 | 40.86821 | 1.56449 | 23664 ft | 410 kts | 235° |
| 2026-04-29 12:59 | 40.85120 | 1.53421 | 24156 ft | 413 kts | 235° |
| 2026-04-29 13:00 | 40.83395 | 1.50352 | 24636 ft | 416 kts | 235° |
| 2026-04-29 13:00 | 40.81679 | 1.47304 | 25095 ft | 419 kts | 235° |
| 2026-04-29 13:00 | 40.79942 | 1.44219 | 25540 ft | 422 kts | 235° |
| 2026-04-29 13:00 | 40.78193 | 1.41117 | 25971 ft | 424 kts | 235° |
| 2026-04-29 13:01 | 40.76433 | 1.37999 | 26391 ft | 427 kts | 235° |
| 2026-04-29 13:01 | 40.74655 | 1.34853 | 26797 ft | 429 kts | 234° |
| 2026-04-29 13:01 | 40.72870 | 1.31696 | 27191 ft | 432 kts | 234° |
| 2026-04-29 13:01 | 40.71079 | 1.28533 | 27575 ft | 434 kts | 234° |
| 2026-04-29 13:02 | 40.69260 | 1.25324 | 27941 ft | 437 kts | 234° |
| 2026-04-29 13:02 | 40.67436 | 1.22111 | 28269 ft | 440 kts | 234° |
| 2026-04-29 13:02 | 40.65602 | 1.18884 | 28686 ft | 440 kts | 234° |
| 2026-04-29 13:02 | 40.63778 | 1.15680 | 29210 ft | 438 kts | 234° |
| 2026-04-29 13:03 | 40.61961 | 1.12491 | 29741 ft | 436 kts | 234° |
| 2026-04-29 13:03 | 40.60150 | 1.09316 | 30244 ft | 434 kts | 234° |
| 2026-04-29 13:03 | 40.58344 | 1.06151 | 30731 ft | 432 kts | 234° |
| 2026-04-29 13:03 | 40.56550 | 1.03010 | 31188 ft | 431 kts | 233° |
| 2026-04-29 13:04 | 40.54697 | 0.99955 | 31627 ft | 430 kts | 230° |
| 2026-04-29 13:04 | 40.52731 | 0.97042 | 32054 ft | 428 kts | 228° |
| 2026-04-29 13:04 | 40.50729 | 0.94178 | 32472 ft | 427 kts | 228° |
| 2026-04-29 13:04 | 40.48718 | 0.91311 | 32869 ft | 426 kts | 228° |
| 2026-04-29 13:05 | 40.46697 | 0.88433 | 33242 ft | 425 kts | 228° |
| 2026-04-29 13:05 | 40.44706 | 0.85600 | 33597 ft | 424 kts | 228° |
| 2026-04-29 13:05 | 40.42712 | 0.82763 | 33946 ft | 423 kts | 228° |
| 2026-04-29 13:05 | 40.40741 | 0.79962 | 34286 ft | 422 kts | 228° |
| 2026-04-29 13:06 | 40.38755 | 0.77141 | 34619 ft | 421 kts | 228° |
| 2026-04-29 13:06 | 40.36757 | 0.74306 | 34929 ft | 420 kts | 228° |
| 2026-04-29 13:06 | 40.34788 | 0.71516 | 35205 ft | 420 kts | 228° |
| 2026-04-29 13:06 | 40.32818 | 0.68726 | 35448 ft | 421 kts | 228° |
| 2026-04-29 13:07 | 40.30833 | 0.65918 | 35663 ft | 422 kts | 228° |
| 2026-04-29 13:07 | 40.28831 | 0.63088 | 35873 ft | 422 kts | 228° |
| 2026-04-29 13:07 | 40.26859 | 0.60301 | 36067 ft | 423 kts | 228° |
| 2026-04-29 13:07 | 40.24863 | 0.57483 | 36249 ft | 424 kts | 228° |
| 2026-04-29 13:08 | 40.22856 | 0.54649 | 36422 ft | 425 kts | 228° |
| 2026-04-29 13:08 | 40.20838 | 0.51803 | 36591 ft | 426 kts | 228° |
| 2026-04-29 13:08 | 40.18818 | 0.48959 | 36743 ft | 427 kts | 228° |
| 2026-04-29 13:08 | 40.16805 | 0.46128 | 36884 ft | 428 kts | 228° |
| 2026-04-29 13:09 | 40.14795 | 0.43305 | 36944 ft | 429 kts | 228° |
| 2026-04-29 13:09 | 40.10733 | 0.37610 | 36952 ft | 429 kts | 228° |
| 2026-04-29 13:10 | 40.06667 | 0.31923 | 36953 ft | 430 kts | 227° |
| 2026-04-29 13:10 | 40.02605 | 0.26254 | 36953 ft | 429 kts | 227° |
| 2026-04-29 13:11 | 39.98535 | 0.20572 | 36952 ft | 429 kts | 227° |
| 2026-04-29 13:11 | 39.94469 | 0.14898 | 36953 ft | 430 kts | 227° |
| 2026-04-29 13:12 | 39.90407 | 0.09247 | 36953 ft | 430 kts | 227° |
| 2026-04-29 13:12 | 39.86286 | 0.03530 | 36953 ft | 430 kts | 227° |
| 2026-04-29 13:13 | 39.82205 | -0.02127 | 36953 ft | 430 kts | 227° |
| 2026-04-29 13:13 | 39.78130 | -0.07771 | 36953 ft | 430 kts | 227° |
| 2026-04-29 13:14 | 39.74030 | -0.13432 | 36953 ft | 430 kts | 227° |
| 2026-04-29 13:14 | 39.69925 | -0.19086 | 36953 ft | 430 kts | 227° |
| 2026-04-29 13:15 | 39.65843 | -0.24698 | 36953 ft | 430 kts | 227° |
| 2026-04-29 13:15 | 39.61813 | -0.30226 | 36945 ft | 412 kts | 227° |
| 2026-04-29 13:16 | 39.57920 | -0.35555 | 36949 ft | 403 kts | 227° |
| 2026-04-29 13:16 | 39.54067 | -0.40819 | 36952 ft | 402 kts | 227° |
| 2026-04-29 13:17 | 39.50232 | -0.46058 | 36952 ft | 401 kts | 228° |
| 2026-04-29 13:17 | 39.46654 | -0.51602 | 36953 ft | 401 kts | 233° |
| 2026-04-29 13:18 | 39.43313 | -0.57314 | 36953 ft | 401 kts | 233° |
| 2026-04-29 13:18 | 39.39930 | -0.63088 | 36942 ft | 401 kts | 233° |
| 2026-04-29 13:19 | 39.36557 | -0.68829 | 36933 ft | 401 kts | 233° |
| 2026-04-29 13:19 | 39.33184 | -0.74557 | 36928 ft | 401 kts | 233° |
| 2026-04-29 13:20 | 39.29819 | -0.80261 | 36927 ft | 401 kts | 233° |
| 2026-04-29 13:20 | 39.26422 | -0.86011 | 36926 ft | 401 kts | 233° |
| 2026-04-29 13:21 | 39.23053 | -0.91714 | 36927 ft | 401 kts | 233° |
| 2026-04-29 13:21 | 39.19674 | -0.97419 | 36926 ft | 401 kts | 233° |
| 2026-04-29 13:22 | 39.16290 | -1.03120 | 36926 ft | 401 kts | 232° |
| 2026-04-29 13:22 | 39.12915 | -1.08793 | 36926 ft | 401 kts | 232° |
| 2026-04-29 13:23 | 39.09505 | -1.14512 | 36926 ft | 401 kts | 232° |
| 2026-04-29 13:23 | 39.06105 | -1.20201 | 36926 ft | 402 kts | 232° |
| 2026-04-29 13:24 | 39.02688 | -1.25913 | 36927 ft | 402 kts | 232° |
| 2026-04-29 13:24 | 38.99301 | -1.31586 | 36927 ft | 401 kts | 231° |
| 2026-04-29 13:25 | 38.95898 | -1.37269 | 36926 ft | 401 kts | 230° |
| 2026-04-29 13:25 | 38.90756 | -1.45824 | 36925 ft | 406 kts | 229° |
| 2026-04-29 13:26 | 38.87295 | -1.51557 | 36925 ft | 412 kts | 229° |
| 2026-04-29 13:26 | 38.83781 | -1.57363 | 36926 ft | 414 kts | 229° |
| 2026-04-29 13:27 | 38.80233 | -1.63221 | 36926 ft | 414 kts | 229° |
| 2026-04-29 13:27 | 38.76702 | -1.69041 | 36926 ft | 414 kts | 228° |
| 2026-04-29 13:28 | 38.73169 | -1.74858 | 36926 ft | 414 kts | 228° |
| 2026-04-29 13:28 | 38.69627 | -1.80685 | 36926 ft | 414 kts | 228° |
| 2026-04-29 13:29 | 38.66097 | -1.86479 | 36926 ft | 414 kts | 228° |
| 2026-04-29 13:29 | 38.62557 | -1.92276 | 36926 ft | 414 kts | 228° |
| 2026-04-29 13:30 | 38.59029 | -1.98038 | 36926 ft | 414 kts | 228° |
| 2026-04-29 13:30 | 38.55486 | -2.03813 | 36927 ft | 414 kts | 228° |
| 2026-04-29 13:31 | 38.51934 | -2.09596 | 36926 ft | 414 kts | 228° |
| 2026-04-29 13:31 | 38.48389 | -2.15367 | 36926 ft | 414 kts | 228° |
| 2026-04-29 13:32 | 38.44825 | -2.21155 | 36926 ft | 414 kts | 228° |
| 2026-04-29 13:32 | 38.41293 | -2.26875 | 36926 ft | 414 kts | 228° |
| 2026-04-29 13:33 | 38.37734 | -2.32631 | 36927 ft | 414 kts | 228° |
| 2026-04-29 13:33 | 38.33981 | -2.38144 | 36927 ft | 411 kts | 223° |
| 2026-04-29 13:34 | 38.30040 | -2.43442 | 36927 ft | 411 kts | 223° |
| 2026-04-29 13:34 | 38.26118 | -2.48699 | 36927 ft | 411 kts | 223° |
| 2026-04-29 13:35 | 38.22175 | -2.53980 | 36927 ft | 411 kts | 223° |
| 2026-04-29 13:35 | 38.18254 | -2.59225 | 36927 ft | 411 kts | 223° |
| 2026-04-29 13:36 | 38.14317 | -2.64482 | 36925 ft | 407 kts | 223° |
| 2026-04-29 13:36 | 38.10421 | -2.69676 | 36926 ft | 405 kts | 222° |
| 2026-04-29 13:37 | 38.06545 | -2.74831 | 36926 ft | 405 kts | 222° |
| 2026-04-29 13:37 | 38.02660 | -2.79990 | 36926 ft | 405 kts | 222° |
| 2026-04-29 13:38 | 37.98773 | -2.85144 | 36926 ft | 405 kts | 222° |
| 2026-04-29 13:38 | 37.94882 | -2.90298 | 36926 ft | 405 kts | 222° |
| 2026-04-29 13:39 | 37.91013 | -2.95422 | 36925 ft | 406 kts | 222° |
| 2026-04-29 13:39 | 37.87091 | -3.00601 | 36926 ft | 408 kts | 222° |
| 2026-04-29 13:40 | 37.83157 | -3.05785 | 36926 ft | 410 kts | 221° |
| 2026-04-29 13:40 | 37.79218 | -3.10962 | 36925 ft | 411 kts | 221° |
| 2026-04-29 13:41 | 37.75253 | -3.16166 | 36926 ft | 413 kts | 221° |
| 2026-04-29 13:41 | 37.71280 | -3.21379 | 36926 ft | 413 kts | 221° |
| 2026-04-29 13:42 | 37.67315 | -3.26576 | 36926 ft | 413 kts | 221° |
| 2026-04-29 13:42 | 37.63347 | -3.31765 | 36926 ft | 413 kts | 221° |
| 2026-04-29 13:43 | 37.59352 | -3.36978 | 36926 ft | 413 kts | 221° |
| 2026-04-29 13:43 | 37.55371 | -3.42165 | 36925 ft | 413 kts | 221° |
| 2026-04-29 13:44 | 37.51383 | -3.47350 | 36923 ft | 413 kts | 221° |
| 2026-04-29 13:44 | 37.47407 | -3.52510 | 36921 ft | 413 kts | 221° |
| 2026-04-29 13:45 | 37.43407 | -3.57693 | 36922 ft | 413 kts | 221° |
| 2026-04-29 13:45 | 37.39431 | -3.62838 | 36923 ft | 413 kts | 221° |
| 2026-04-29 13:46 | 37.35429 | -3.68016 | 36922 ft | 413 kts | 221° |
| 2026-04-29 13:46 | 37.31434 | -3.73176 | 36918 ft | 413 kts | 221° |
| 2026-04-29 13:47 | 37.27441 | -3.78319 | 36913 ft | 413 kts | 221° |
| 2026-04-29 13:47 | 37.23451 | -3.83450 | 36908 ft | 413 kts | 221° |
| 2026-04-29 13:48 | 37.19451 | -3.88586 | 36903 ft | 413 kts | 221° |
| 2026-04-29 13:48 | 37.15447 | -3.93718 | 36900 ft | 413 kts | 221° |
| 2026-04-29 13:49 | 37.11447 | -3.98836 | 36899 ft | 413 kts | 221° |
| 2026-04-29 13:49 | 37.07446 | -4.03944 | 36907 ft | 406 kts | 221° |
| 2026-04-29 13:50 | 37.03552 | -4.08907 | 36918 ft | 399 kts | 222° |
| 2026-04-29 13:50 | 36.99694 | -4.13816 | 36923 ft | 393 kts | 223° |
| 2026-04-29 13:51 | 36.95868 | -4.18677 | 36925 ft | 391 kts | 224° |
| 2026-04-29 13:51 | 36.92091 | -4.23478 | 36924 ft | 390 kts | 224° |
| 2026-04-29 13:52 | 36.88291 | -4.28299 | 36925 ft | 390 kts | 224° |
| 2026-04-29 13:52 | 36.84482 | -4.33102 | 36924 ft | 390 kts | 223° |
| 2026-04-29 13:53 | 36.80412 | -4.37519 | 36924 ft | 389 kts | 216° |
| 2026-04-29 13:53 | 36.75984 | -4.41321 | 36925 ft | 388 kts | 212° |
| 2026-04-29 13:54 | 36.71450 | -4.44925 | 36925 ft | 388 kts | 212° |
| 2026-04-29 13:54 | 36.66900 | -4.48539 | 36925 ft | 387 kts | 212° |
| 2026-04-29 13:55 | 36.62369 | -4.52131 | 36924 ft | 388 kts | 212° |
| 2026-04-29 13:55 | 36.57820 | -4.55734 | 36924 ft | 388 kts | 212° |
| 2026-04-29 13:56 | 36.53292 | -4.59315 | 36925 ft | 388 kts | 212° |
| 2026-04-29 13:56 | 36.48733 | -4.62915 | 36924 ft | 388 kts | 212° |
| 2026-04-29 13:57 | 36.44199 | -4.66491 | 36924 ft | 388 kts | 211° |
| 2026-04-29 13:57 | 36.39648 | -4.70075 | 36923 ft | 387 kts | 211° |
| 2026-04-29 13:58 | 36.35107 | -4.73646 | 36925 ft | 388 kts | 211° |
| 2026-04-29 13:58 | 36.30565 | -4.77211 | 36923 ft | 388 kts | 211° |
| 2026-04-29 13:59 | 36.26036 | -4.80762 | 36924 ft | 388 kts | 211° |
| 2026-04-29 13:59 | 36.21471 | -4.84335 | 36924 ft | 387 kts | 211° |
| 2026-04-29 14:00 | 36.16914 | -4.87898 | 36739 ft | 388 kts | 211° |
| 2026-04-29 14:00 | 36.14645 | -4.89673 | 36491 ft | 387 kts | 211° |
| 2026-04-29 14:00 | 36.12380 | -4.91463 | 36235 ft | 387 kts | 211° |
| 2026-04-29 14:01 | 36.10112 | -4.93263 | 35913 ft | 388 kts | 211° |
| 2026-04-29 14:01 | 36.07881 | -4.95033 | 35482 ft | 388 kts | 211° |
| 2026-04-29 14:01 | 36.05597 | -4.96843 | 34918 ft | 390 kts | 211° |
| 2026-04-29 14:01 | 36.03313 | -4.98648 | 34316 ft | 391 kts | 211° |
| 2026-04-29 14:02 | 36.01031 | -5.00450 | 33762 ft | 390 kts | 211° |
| 2026-04-29 14:02 | 35.98740 | -5.02258 | 33180 ft | 391 kts | 211° |
| 2026-04-29 14:02 | 35.96481 | -5.04039 | 32605 ft | 392 kts | 211° |
| 2026-04-29 14:02 | 35.94174 | -5.05854 | 32003 ft | 392 kts | 211° |
| 2026-04-29 14:03 | 35.91907 | -5.07638 | 31370 ft | 387 kts | 211° |
| 2026-04-29 14:03 | 35.89648 | -5.09415 | 30337 ft | 388 kts | 211° |
| 2026-04-29 14:03 | 35.87382 | -5.11198 | 29370 ft | 392 kts | 212° |
| 2026-04-29 14:03 | 35.85296 | -5.13333 | 28576 ft | 400 kts | 225° |
| 2026-04-29 14:04 | 35.83686 | -5.16138 | 27967 ft | 406 kts | 240° |
| 2026-04-29 14:04 | 35.82695 | -5.19405 | 27594 ft | 412 kts | 253° |
| 2026-04-29 14:04 | 35.82151 | -5.22884 | 27269 ft | 406 kts | 257° |
| 2026-04-29 14:04 | 35.81701 | -5.26220 | 26526 ft | 398 kts | 257° |
| 2026-04-29 14:05 | 35.81251 | -5.29574 | 25541 ft | 396 kts | 257° |
| 2026-04-29 14:05 | 35.80792 | -5.32954 | 25148 ft | 403 kts | 257° |
| 2026-04-29 14:05 | 35.80326 | -5.36353 | 24527 ft | 404 kts | 257° |
| 2026-04-29 14:05 | 35.79857 | -5.39746 | 23749 ft | 404 kts | 257° |
| 2026-04-29 14:06 | 35.79384 | -5.43146 | 23364 ft | 404 kts | 257° |
| 2026-04-29 14:06 | 35.78912 | -5.46538 | 22892 ft | 402 kts | 257° |
| 2026-04-29 14:06 | 35.78452 | -5.49916 | 22385 ft | 399 kts | 258° |
| 2026-04-29 14:06 | 35.78048 | -5.53277 | 21909 ft | 396 kts | 258° |
| 2026-04-29 14:07 | 35.77661 | -5.56622 | 21424 ft | 392 kts | 258° |
| 2026-04-29 14:07 | 35.77282 | -5.59891 | 20923 ft | 389 kts | 258° |
| 2026-04-29 14:07 | 35.76893 | -5.63199 | 20400 ft | 387 kts | 258° |
| 2026-04-29 14:07 | 35.76507 | -5.66463 | 19878 ft | 384 kts | 258° |
| 2026-04-29 14:08 | 35.76125 | -5.69664 | 19359 ft | 382 kts | 258° |
| 2026-04-29 14:08 | 35.75740 | -5.72871 | 18836 ft | 379 kts | 258° |
| 2026-04-29 14:08 | 35.75357 | -5.76056 | 18313 ft | 376 kts | 257° |
| 2026-04-29 14:08 | 35.74975 | -5.79224 | 17789 ft | 374 kts | 257° |
| 2026-04-29 14:09 | 35.74594 | -5.82375 | 17265 ft | 371 kts | 257° |
| 2026-04-29 14:09 | 35.74215 | -5.85501 | 16737 ft | 368 kts | 257° |
| 2026-04-29 14:09 | 35.73840 | -5.88593 | 16213 ft | 366 kts | 257° |
| 2026-04-29 14:09 | 35.73410 | -5.91612 | 15970 ft | 342 kts | 254° |
| 2026-04-29 14:10 | 35.72850 | -5.94418 | 15858 ft | 335 kts | 251° |
| 2026-04-29 14:10 | 35.72210 | -5.97169 | 15751 ft | 325 kts | 250° |
| 2026-04-29 14:10 | 35.71609 | -5.99735 | 15647 ft | 299 kts | 250° |
| 2026-04-29 14:10 | 35.71058 | -6.02083 | 15558 ft | 273 kts | 249° |
| 2026-04-29 14:11 | 35.70540 | -6.04274 | 15495 ft | 267 kts | 249° |
| 2026-04-29 14:11 | 35.70015 | -6.06469 | 15434 ft | 266 kts | 249° |
| 2026-04-29 14:11 | 35.69497 | -6.08644 | 15375 ft | 265 kts | 249° |
| 2026-04-29 14:11 | 35.68980 | -6.10821 | 15299 ft | 258 kts | 249° |
| 2026-04-29 14:12 | 35.68492 | -6.12894 | 15222 ft | 247 kts | 249° |
| 2026-04-29 14:12 | 35.68023 | -6.14883 | 15073 ft | 243 kts | 250° |
| 2026-04-29 14:12 | 35.67903 | -6.16994 | 14720 ft | 255 kts | 279° |
| 2026-04-29 14:12 | 35.68787 | -6.18889 | 14233 ft | 271 kts | 314° |
| 2026-04-29 14:13 | 35.70502 | -6.19935 | 13764 ft | 284 kts | 345° |
| 2026-04-29 14:13 | 35.72470 | -6.19951 | 13295 ft | 290 kts | 17° |
| 2026-04-29 14:13 | 35.74165 | -6.18668 | 12884 ft | 285 kts | 53° |
| 2026-04-29 14:13 | 35.74975 | -6.16537 | 12541 ft | 272 kts | 91° |
| 2026-04-29 14:14 | 35.74773 | -6.14331 | 12249 ft | 261 kts | 112° |
| 2026-04-29 14:14 | 35.74297 | -6.12146 | 11898 ft | 263 kts | 109° |
| 2026-04-29 14:14 | 35.73975 | -6.09942 | 11627 ft | 263 kts | 103° |
| 2026-04-29 14:14 | 35.73805 | -6.07707 | 11341 ft | 262 kts | 100° |
| 2026-04-29 14:15 | 35.73709 | -6.05486 | 11055 ft | 261 kts | 98° |
| 2026-04-29 14:15 | 35.73645 | -6.03271 | 10786 ft | 257 kts | 98° |
| 2026-04-29 14:15 | 35.73597 | -6.01107 | 10418 ft | 255 kts | 97° |
| 2026-04-29 14:15 | 35.73549 | -5.98910 | 9995 ft | 254 kts | 97° |
| 2026-04-29 14:16 | 35.73504 | -5.96774 | 9604 ft | 252 kts | 97° |
| 2026-04-29 14:16 | 35.73457 | -5.94610 | 9179 ft | 251 kts | 97° |
| 2026-04-29 14:16 | 35.73373 | -5.92478 | 8752 ft | 249 kts | 104° |
| 2026-04-29 14:16 | 35.72903 | -5.90496 | 8411 ft | 238 kts | 118° |
| 2026-04-29 14:17 | 35.72229 | -5.88656 | 8082 ft | 235 kts | 120° |
| 2026-04-29 14:17 | 35.71532 | -5.86862 | 7855 ft | 231 kts | 120° |
| 2026-04-29 14:17 | 35.70843 | -5.85079 | 7583 ft | 232 kts | 120° |
| 2026-04-29 14:17 | 35.70161 | -5.83303 | 7361 ft | 229 kts | 120° |
| 2026-04-29 14:18 | 35.69486 | -5.81531 | 7087 ft | 228 kts | 119° |
| 2026-04-29 14:18 | 35.68821 | -5.79776 | 6792 ft | 227 kts | 119° |
| 2026-04-29 14:18 | 35.68150 | -5.78005 | 6491 ft | 227 kts | 118° |
| 2026-04-29 14:18 | 35.67494 | -5.76273 | 6248 ft | 224 kts | 118° |
| 2026-04-29 14:19 | 35.66839 | -5.74540 | 5959 ft | 223 kts | 118° |
| 2026-04-29 14:19 | 35.66179 | -5.72796 | 5658 ft | 223 kts | 118° |
| 2026-04-29 14:19 | 35.65532 | -5.71091 | 5407 ft | 221 kts | 117° |
| 2026-04-29 14:19 | 35.64890 | -5.69381 | 5139 ft | 221 kts | 119° |
| 2026-04-29 14:20 | 35.64348 | -5.67581 | 4867 ft | 229 kts | 101° |
| 2026-04-29 14:20 | 35.64478 | -5.65642 | 4613 ft | 236 kts | 72° |
| 2026-04-29 14:20 | 35.65397 | -5.63957 | 4403 ft | 238 kts | 41° |
| 2026-04-29 14:20 | 35.66855 | -5.63034 | 4169 ft | 239 kts | 11° |
| 2026-04-29 14:21 | 35.68489 | -5.63092 | 3946 ft | 237 kts | 339° |
| 2026-04-29 14:21 | 35.69876 | -5.64072 | 3672 ft | 232 kts | 311° |
| 2026-04-29 14:21 | 35.70713 | -5.65715 | 3398 ft | 224 kts | 284° |
| 2026-04-29 14:21 | 35.71013 | -5.67538 | 3297 ft | 216 kts | 272° |
| 2026-04-29 14:22 | 35.71138 | -5.69396 | 3292 ft | 215 kts | 271° |
| 2026-04-29 14:22 | 35.71257 | -5.71232 | 3140 ft | 214 kts | 272° |
| 2026-04-29 14:22 | 35.71399 | -5.73028 | 2856 ft | 207 kts | 273° |
| 2026-04-29 14:22 | 35.71553 | -5.74744 | 2579 ft | 198 kts | 275° |
| 2026-04-29 14:23 | 35.71708 | -5.76394 | 2340 ft | 188 kts | 275° |
| 2026-04-29 14:23 | 35.71850 | -5.77934 | 2163 ft | 173 kts | 277° |
| 2026-04-29 14:23 | 35.71983 | -5.79359 | 1895 ft | 165 kts | 274° |
| 2026-04-29 14:23 | 35.72107 | -5.80707 | 1693 ft | 151 kts | 274° |
| 2026-04-29 14:24 | 35.72219 | -5.81923 | 1465 ft | 137 kts | 276° |
| 2026-04-29 14:24 | 35.72324 | -5.83059 | 1269 ft | 132 kts | 276° |
| 2026-04-29 14:24 | 35.72428 | -5.84172 | 1105 ft | 131 kts | 275° |
| 2026-04-29 14:24 | 35.72530 | -5.85285 | 945 ft | 131 kts | 276° |
| 2026-04-29 14:25 | 35.72633 | -5.86402 | 779 ft | 131 kts | 276° |
| 2026-04-29 14:25 | 35.72736 | -5.87507 | 604 ft | 130 kts | 276° |
| 2026-04-29 14:25 | 35.72838 | -5.88620 | 430 ft | 130 kts | 276° |
| 2026-04-29 14:25 | 35.72942 | -5.89714 | 252 ft | 129 kts | 278° |
| 2026-04-29 14:26 | 35.73044 | -5.90805 | 94 ft | 128 kts | 276° |
| 2026-04-29 14:26 | 35.73135 | -5.91799 | 71 ft | 95 kts | 276° |
| 2026-04-29 14:26 | 35.73192 | -5.92402 | 71 ft | 43 kts | 276° |
| 2026-04-29 14:26 | 35.73152 | -5.92602 | 71 ft | 19 kts | 210° |
| 2026-04-29 14:27 | 35.73036 | -5.92567 | 71 ft | 18 kts | 126° |
| 2026-04-29 14:27 | 35.73009 | -5.92414 | 71 ft | 18 kts | 96° |
| 2026-04-29 14:27 | 35.72996 | -5.92258 | 71 ft | 18 kts | 96° |
| 2026-04-29 14:28 | 35.72961 | -5.91879 | 71 ft | 22 kts | 96° |
| 2026-04-29 14:28 | 35.72931 | -5.91740 | 71 ft | 14 kts | 137° |
| 2026-04-29 14:28 | 35.72829 | -5.91715 | 71 ft | 17 kts | 179° |
| 2026-04-29 14:28 | 35.72692 | -5.91702 | 71 ft | 21 kts | 175° |
| 2026-04-29 14:29 | 35.72548 | -5.91688 | 71 ft | 19 kts | 175° |
| 2026-04-29 14:29 | 35.72437 | -5.91611 | 71 ft | 18 kts | 116° |
| 2026-04-29 14:29 | 35.72429 | -5.91454 | 71 ft | 18 kts | 85° |
| 2026-04-29 14:29 | 35.72442 | -5.91349 | 71 ft | 8 kts | 47° |
| 2026-04-29 14:30 | 35.72495 | -5.91342 | 71 ft | 8 kts | 355° |
| 2026-04-29 14:30 | 35.72536 | -5.91346 | 71 ft | 0 kts | 355° |